Time;durP1;ratioP1;P1;durP2;ratioP2;P2;SDS_P1;SDS_P2;PMS_P1;PMS_P2;Temp;Humidity;BMP_temperature;BMP_pressure;BME280_temperature;BME280_humidity;BME280_pressure;Samples;Min_cycle;Max_cycle;Signal;HPM_P1;HPM_P2
2023/12/15 06:27:15;;;;;;;84.67;19.90;;;6.70;99.90;;;;;;4890049;24;20120;-93
2023/12/15 06:45:08;;;;;;;84.60;21.83;;;6.70;99.90;;;;;;5068780;28;20401;-87
2023/12/15 06:47:52;;;;;;;73.27;20.37;;;6.60;99.90;;;;;;5085295;28;20049;-88
2023/12/15 06:54:17;;;;;;;65.10;17.97;;;7.80;99.90;;;;;;5043638;28;20132;-88
2023/12/15 06:57:20;;;;;;;69.30;20.63;;;8.30;99.90;;;;;;5068519;28;20053;-88
2023/12/15 07:00:37;;;;;;;67.30;20.27;;;6.20;99.90;;;;;;5068727;28;20082;-88
2023/12/15 07:03:12;;;;;;;56.20;17.83;;;6.80;99.90;;;;;;4984441;28;20061;-90
2023/12/15 07:05:38;;;;;;;69.20;20.93;;;8.30;99.90;;;;;;5067947;28;20041;-87
2023/12/15 07:08:14;;;;;;;73.17;20.00;;;6.40;99.90;;;;;;5069033;28;20400;-87
2023/12/15 07:11:33;;;;;;;72.20;18.07;;;8.50;99.90;;;;;;5068357;28;20052;-86
2023/12/15 07:14:17;;;;;;;77.33;20.07;;;6.30;99.90;;;;;;5069395;28;20045;-87
2023/12/15 07:16:51;;;;;;;69.45;19.90;;;7.60;99.90;;;;;;5071062;28;20518;-88
2023/12/15 07:20:12;;;;;;;61.10;20.00;;;6.30;99.90;;;;;;5087905;22;20502;-89
2023/12/15 07:23:49;;;;;;;69.93;19.13;;;7.40;99.90;;;;;;4990462;28;20130;-90
2023/12/15 07:26:40;;;;;;;67.37;18.07;;;7.70;99.90;;;;;;4987565;28;20066;-89
2023/12/15 07:29:15;;;;;;;63.53;18.80;;;6.40;99.90;;;;;;4985617;28;20510;-89
2023/12/15 07:31:45;;;;;;;53.70;15.87;;;7.10;99.90;;;;;;4990224;28;20510;-89
2023/12/15 07:34:20;;;;;;;59.27;16.83;;;6.60;99.90;;;;;;4989790;28;20471;-89
2023/12/15 07:37:17;;;;;;;79.60;19.97;;;7.60;99.90;;;;;;4990479;28;20042;-90
2023/12/15 07:40:18;;;;;;;100.33;21.60;;;7.10;99.90;;;;;;4991482;28;20549;-90
2023/12/15 07:43:40;;;;;;;79.27;19.90;;;5.70;99.90;;;;;;4955753;28;20058;-89
2023/12/15 07:46:24;;;;;;;97.20;21.00;;;7.30;99.90;;;;;;4951857;28;20051;-88
2023/12/15 07:49:02;;;;;;;92.22;21.83;;;5.90;99.90;;;;;;4952031;28;20047;-89
2023/12/15 07:52:21;;;;;;;92.33;20.80;;;7.80;99.90;;;;;;4951930;28;20046;-89
2023/12/15 07:54:56;;;;;;;96.37;20.87;;;5.90;99.90;;;;;;5001265;23;20050;-86
2023/12/15 07:57:22;;;;;;;95.33;18.93;;;6.60;99.90;;;;;;5014176;28;20052;-86
2023/12/15 08:00:43;;;;;;;97.40;21.30;;;5.80;99.90;;;;;;5014132;28;20128;-86
2023/12/15 08:03:13;;;;;;;98.00;20.53;;;7.40;99.90;;;;;;5003561;22;20042;-86
2023/12/15 08:06:06;;;;;;;95.33;21.27;;;6.10;99.90;;;;;;4974881;28;20099;-87
2023/12/15 08:08:48;;;;;;;89.97;20.30;;;7.90;99.90;;;;;;4973994;28;20102;-86
2023/12/15 08:11:14;;;;;;;92.17;20.93;;;7.40;99.90;;;;;;4974641;28;20380;-85
2023/12/15 09:01:37;;;;;;;68.57;22.80;;;7.00;99.90;;;;;;5012742;28;20041;-88
2023/12/15 09:15:14;;;;;;;;;;;;;;;;;;;;;
2023/12/15 09:33:00;;;;;;;;;;;;;;;;;;;;;
2023/12/15 09:36:10;;;;;;;52.13;18.67;;;6.90;99.90;;;;;;4922181;29;20407;-87
2023/12/15 09:42:30;;;;;;;52.37;25.03;;;7.30;99.90;;;;;;4951119;29;20054;-87
2023/12/15 09:44:56;;;;;;;46.15;17.33;;;7.50;99.90;;;;;;4932490;29;20503;-87
2023/12/15 09:47:50;;;;;;;50.93;22.80;;;8.70;99.90;;;;;;4924799;29;20039;-88
2023/12/15 10:01:39;;;;;;;36.13;14.17;;;7.40;99.90;;;;;;4943956;29;20031;-88
2023/12/15 10:04:23;;;;;;;36.43;14.73;;;7.40;99.90;;;;;;4944291;29;20039;-88
2023/12/15 10:06:55;;;;;;;41.47;14.70;;;9.40;99.90;;;;;;4940705;29;20055;-90
2023/12/15 10:09:24;;;;;;;40.17;13.73;;;8.70;99.90;;;;;;4934968;29;20567;-89
2023/12/15 10:18:13;;;;;;;44.90;21.37;;;7.10;99.90;;;;;;4961932;23;20055;-86
2023/12/15 10:20:40;;;;;;;51.93;23.57;;;9.00;99.90;;;;;;4953771;29;20046;-86
2023/12/15 10:23:08;;;;;;;43.13;16.97;;;9.30;99.90;;;;;;4952987;28;20039;-85
2023/12/15 10:25:56;;;;;;;40.20;15.57;;;7.80;99.90;;;;;;4954121;28;20101;-87
2023/12/15 10:31:18;;;;;;;;;;;;;;;;;;;;;
2023/12/15 10:52:35;;;;;;;40.67;14.97;;;8.10;99.90;;;;;;5146845;23;20475;-87
2023/12/15 10:55:03;;;;;;;43.40;25.52;;;7.60;99.90;;;;;;5046030;23;20082;-85
2023/12/15 10:57:38;;;;;;;37.17;13.23;;;9.80;99.90;;;;;;4941750;29;20045;-90
2023/12/15 11:00:41;;;;;;;36.73;13.23;;;7.90;99.90;;;;;;4939830;29;20055;-88
2023/12/15 11:03:45;;;;;;;35.90;12.23;;;8.40;99.90;;;;;;4940256;28;20036;-87
2023/12/15 11:09:48;;;;;;;;;;;;;;;;;;;;;
2023/12/15 11:19:52;;;;;;;35.77;16.13;;;7.70;99.90;;;;;;4994942;23;20066;-85
2023/12/15 11:23:10;;;;;;;27.80;9.13;;;8.40;99.90;;;;;;4884326;29;20052;-85
2023/12/15 11:29:35;;;;;;;26.05;7.03;;;8.30;99.90;;;;;;5043943;23;20066;-85
2023/12/15 11:35:38;;;;;;;20.77;6.20;;;8.00;99.90;;;;;;4957247;28;20051;-86
2023/12/15 11:38:29;;;;;;;20.20;7.50;;;8.00;99.90;;;;;;4955937;29;20047;-85
2023/12/15 11:41:31;;;;;;;23.92;8.00;;;8.80;99.90;;;;;;4956304;29;20574;-86
2023/12/15 11:44:02;;;;;;;22.75;8.35;;;8.60;99.90;;;;;;4955951;29;20050;-86
2023/12/15 11:46:31;;;;;;;25.45;9.27;;;8.40;99.90;;;;;;4955377;29;20046;-87
2023/12/15 11:48:57;;;;;;;30.15;11.68;;;8.90;99.90;;;;;;4952002;29;20051;-85
2023/12/15 11:51:25;;;;;;;24.10;7.07;;;8.80;99.90;;;;;;4936975;29;20047;-86
2023/12/15 11:54:09;;;;;;;21.70;5.40;;;10.00;99.90;;;;;;4936301;29;20396;-86
2023/12/15 11:56:34;;;;;;;22.73;7.55;;;8.00;99.90;;;;;;4936748;29;20048;-84
2023/12/15 11:59:01;;;;;;;26.98;9.63;;;10.20;99.90;;;;;;4936669;29;20044;-84
2023/12/15 12:01:44;;;;;;;30.77;5.97;;;10.10;99.90;;;;;;4936006;29;20050;-85
2023/12/15 12:11:51;;;;;;;18.63;5.45;;;8.70;99.90;;;;;;4938212;29;20046;-85
2023/12/15 12:14:28;;;;;;;25.33;7.78;;;9.90;99.90;;;;;;4935554;29;20400;-85
2023/12/15 12:17:30;;;;;;;27.35;5.75;;;10.10;99.90;;;;;;4936587;29;20047;-85
2023/12/15 12:20:11;;;;;;;19.90;4.93;;;8.70;99.90;;;;;;4936387;29;20547;-87
2023/12/15 12:23:02;;;;;;;22.30;5.50;;;8.40;99.90;;;;;;4935167;29;20051;-86
2023/12/15 12:25:32;;;;;;;19.92;8.07;;;8.90;99.90;;;;;;4937147;29;20058;-86
2023/12/15 12:28:07;;;;;;;25.60;6.13;;;9.00;99.90;;;;;;4934535;29;20066;-86
2023/12/15 12:30:38;;;;;;;17.13;6.27;;;9.00;99.90;;;;;;4936241;29;20050;-87
2023/12/15 12:33:12;;;;;;;22.65;7.95;;;10.60;99.90;;;;;;4935188;29;20054;-86
2023/12/15 12:35:47;;;;;;;21.27;5.28;;;10.00;99.90;;;;;;4935563;29;20083;-86
2023/12/15 12:38:13;;;;;;;24.55;9.18;;;9.40;99.90;;;;;;5161842;23;20105;-86
2023/12/15 12:40:42;;;;;;;18.85;6.05;;;8.70;99.90;;;;;;4954906;28;20058;-86
2023/12/15 12:43:42;;;;;;;21.40;6.50;;;8.60;99.90;;;;;;4953911;29;20399;-87
2023/12/15 12:46:37;;;;;;;22.98;6.65;;;8.90;99.90;;;;;;4956278;29;20110;-88
2023/12/15 13:03:36;;;;;;;22.53;9.53;;;9.20;99.90;;;;;;4955223;29;20068;-86
2023/12/15 13:06:43;;;;;;;23.43;8.47;;;8.00;99.90;;;;;;4954270;28;20047;-87
2023/12/15 13:12:58;;;;;;;26.83;5.03;;;8.10;99.90;;;;;;4862258;29;20160;-87
2023/12/15 13:15:24;;;;;;;19.25;4.72;;;8.40;99.90;;;;;;4846180;29;20049;-86
2023/12/15 13:18:02;;;;;;;19.03;4.43;;;10.50;99.90;;;;;;4922543;28;20060;-86
2023/12/15 13:20:28;;;;;;;18.53;4.90;;;8.90;99.90;;;;;;4941299;29;20031;-86
2023/12/15 13:23:22;;;;;;;16.23;4.00;;;8.00;99.90;;;;;;4953979;28;20054;-86
2023/12/15 13:27:09;;;;;;;21.23;4.13;;;8.90;99.90;;;;;;4868535;29;20064;-87
2023/12/15 13:36:04;;;;;;;26.25;4.55;;;8.90;99.90;;;;;;4955126;28;20091;-86
2023/12/15 13:54:11;;;;;;;18.73;6.10;;;8.90;99.90;;;;;;4953841;29;20105;-87
2023/12/15 13:57:30;;;;;;;16.15;4.63;;;10.50;99.90;;;;;;4937809;29;20047;-87
2023/12/15 14:00:08;;;;;;;16.67;4.65;;;8.30;99.90;;;;;;4937775;29;20059;-88
2023/12/15 14:10:21;;;;;;;22.23;10.18;;;9.30;99.90;;;;;;4840057;29;20136;-87
2023/12/15 14:12:47;;;;;;;16.20;3.90;;;8.90;99.90;;;;;;4749351;29;20062;-86
2023/12/15 14:18:56;;;;;;;18.98;4.78;;;9.70;99.90;;;;;;5295776;23;20410;-87
2023/12/15 14:21:22;;;;;;;20.17;4.10;;;8.80;99.90;;;;;;4959585;28;20079;-86
2023/12/15 14:23:48;;;;;;;17.17;4.17;;;8.80;99.90;;;;;;4975989;28;20050;-87
2023/12/15 14:33:04;;;;;;;19.57;4.30;;;8.50;99.90;;;;;;4895515;29;20041;-87
2023/12/15 14:35:29;;;;;;;15.80;3.83;;;8.20;99.90;;;;;;4986283;28;20061;-86
2023/12/15 14:38:04;;;;;;;14.73;3.60;;;8.80;99.90;;;;;;4982810;28;20046;-86
2023/12/15 14:40:30;;;;;;;19.07;3.47;;;9.30;99.90;;;;;;5146767;23;20048;-86
2023/12/15 14:42:56;;;;;;;20.05;4.35;;;9.50;99.90;;;;;;4903548;29;20056;-87
2023/12/15 14:45:22;;;;;;;17.80;3.90;;;9.40;99.90;;;;;;4925855;28;20100;-87
2023/12/15 15:27:06;;;;;;;19.80;3.80;;;8.40;99.90;;;;;;4982836;28;20050;-85
2023/12/15 15:29:44;;;;;;;18.00;3.93;;;8.50;99.90;;;;;;4985741;28;20042;-85
2023/12/15 15:32:11;;;;;;;20.93;4.17;;;8.00;99.90;;;;;;4985160;28;20394;-85
2023/12/15 15:34:45;;;;;;;20.37;5.77;;;9.60;99.90;;;;;;4978589;28;20050;-86
2023/12/15 15:37:42;;;;;;;21.03;4.53;;;9.90;99.90;;;;;;4983598;28;20105;-86
2023/12/15 15:48:01;;;;;;;31.93;9.63;;;7.80;99.90;;;;;;4992915;28;20037;-86
2023/12/15 15:50:42;;;;;;;20.70;6.20;;;8.30;99.90;;;;;;4958403;28;20050;-89
2023/12/15 15:53:07;;;;;;;44.20;23.00;;;8.30;99.90;;;;;;4960009;28;20058;-86
2023/12/15 16:08:23;;;;;;;22.23;5.03;;;7.20;99.90;;;;;;5037513;28;20432;-89
2023/12/15 16:11:23;;;;;;;24.13;6.47;;;8.10;99.90;;;;;;5011662;28;20046;-89
2023/12/15 16:13:49;;;;;;;22.57;6.70;;;8.90;99.90;;;;;;4992336;28;20437;-87
2023/12/15 16:16:15;;;;;;;29.73;6.47;;;8.80;99.90;;;;;;4997089;28;20096;-88
2023/12/15 16:18:49;;;;;;;28.80;8.93;;;7.50;99.90;;;;;;4997255;28;20042;-88
2023/12/15 16:21:35;;;;;;;30.40;6.87;;;8.60;99.90;;;;;;4980449;28;20401;-86
2023/12/15 16:24:22;;;;;;;29.03;7.87;;;8.90;99.90;;;;;;4997213;28;20046;-86
2023/12/15 16:27:40;;;;;;;33.00;6.70;;;7.50;99.90;;;;;;4997431;28;20077;-87
2023/12/15 16:30:21;;;;;;;28.70;7.17;;;6.90;99.90;;;;;;4997307;28;20104;-86
2023/12/15 16:32:46;;;;;;;34.33;10.77;;;7.80;99.90;;;;;;4997590;28;20405;-86
2023/12/15 16:35:22;;;;;;;;;;;;;;;;;;;;;
2023/12/15 16:38:04;;;;;;;31.73;9.33;;;;;;;;;;4968981;28;20512;-87
2023/12/15 16:40:47;;;;;;;32.80;7.20;;;7.50;99.90;;;;;;4999432;28;20453;-96
2023/12/15 17:56:42;;;;;;;25.57;7.37;;;6.40;99.90;;;;;;5846546;23;20567;-90
2023/12/15 18:02:32;;;;;;;28.03;6.83;;;6.40;99.90;;;;;;4954632;29;20047;-90
2023/12/15 18:18:33;;;;;;;27.73;11.67;;;6.00;99.90;;;;;;5312860;22;20025;-93
2023/12/15 18:21:46;;;;;;;27.17;6.63;;;6.50;99.90;;;;;;4993034;28;20081;-94
2023/12/15 18:27:55;;;;;;;26.77;6.93;;;6.70;99.90;;;;;;4920870;29;20094;-94
2023/12/15 18:30:42;;;;;;;33.27;9.23;;;8.40;99.90;;;;;;4948736;28;20042;-92
2023/12/15 18:34:21;;;;;;;32.37;9.93;;;6.20;99.90;;;;;;5012094;23;20050;-93
2023/12/15 18:41:44;;;;;;;33.73;12.10;;;5.40;99.90;;;;;;5003229;23;20054;-93
2023/12/15 18:50:26;;;;;;;37.37;9.20;;;6.90;99.90;;;;;;4994710;23;20053;-93
2023/12/15 18:58:10;;;;;;;32.43;11.07;;;6.30;99.90;;;;;;5033259;28;20037;-94
2023/12/15 19:01:26;;;;;;;74.43;37.77;;;6.40;99.90;;;;;;5031237;28;20501;-93
2023/12/15 19:04:00;;;;;;;;;;;7.40;99.90;;;;;;4998614;28;20058;-94
2023/12/15 19:06:41;;;;;;;87.30;44.07;;;6.20;99.90;;;;;;5012889;28;19921;-93
2023/12/15 19:13:20;;;;;;;65.13;31.77;;;5.90;99.90;;;;;;5239313;23;20134;-94
2023/12/15 19:16:01;;;;;;;33.70;13.10;;;6.10;99.90;;;;;;4996583;28;20061;-93
2023/12/15 19:18:42;;;;;;;34.13;13.07;;;5.70;99.90;;;;;;4998913;28;20050;-93
2023/12/15 19:23:46;;;;;;;34.13;14.33;;;6.00;99.90;;;;;;5082890;23;20054;-92
2023/12/15 19:26:25;;;;;;;27.30;10.73;;;5.50;99.90;;;;;;5015908;28;20049;-93
2023/12/15 19:29:52;;;;;;;;;;;;;;;;;;;;;
2023/12/15 19:33:19;;;;;;;33.40;14.77;;;5.90;99.90;;;;;;4998956;28;20532;-93
2023/12/15 19:35:47;;;;;;;29.57;11.97;;;5.90;99.90;;;;;;5001205;28;20128;-93
2023/12/15 19:41:13;;;;;;;30.00;10.10;;;5.90;99.90;;;;;;5419831;23;20489;-93
2023/12/15 19:43:51;;;;;;;30.50;11.50;;;6.20;99.90;;;;;;4939570;29;20105;-93
2023/12/15 19:46:43;;;;;;;26.77;9.60;;;7.50;99.90;;;;;;4961045;23;20456;-93
2023/12/15 19:49:21;;;;;;;27.07;8.07;;;5.90;99.90;;;;;;4997598;28;20053;-93
2023/12/15 19:55:03;;;;;;;24.60;8.13;;;5.80;99.90;;;;;;5066152;23;20080;-93
2023/12/15 20:00:32;;;;;;;29.77;7.90;;;5.20;99.90;;;;;;5065335;23;20053;-94
2023/12/15 20:03:48;;;;;;;28.53;7.53;;;7.20;99.90;;;;;;5018840;28;20045;-93
2023/12/15 20:07:02;;;;;;;32.17;8.07;;;5.80;99.90;;;;;;5025003;23;20375;-94
2023/12/15 20:10:19;;;;;;;23.92;7.80;;;5.80;99.90;;;;;;4967771;23;20053;-94
2023/12/15 20:16:49;;;;;;;22.37;8.17;;;5.20;99.90;;;;;;5043852;23;20072;-93
2023/12/15 20:19:28;;;;;;;25.07;8.20;;;5.50;99.90;;;;;;5014198;28;20054;-93
2023/12/15 20:22:05;;;;;;;28.97;8.83;;;7.40;99.90;;;;;;5014949;23;20057;-93
2023/12/15 20:24:52;;;;;;;23.93;8.67;;;5.60;99.90;;;;;;5002013;28;20096;-93
2023/12/15 20:27:31;;;;;;;26.47;7.87;;;6.90;99.90;;;;;;5022364;28;20014;-93
2023/12/15 20:32:32;;;;;;;23.90;8.70;;;5.70;99.90;;;;;;5076878;23;20486;-93
2023/12/15 20:35:07;;;;;;;31.03;10.67;;;6.20;99.90;;;;;;5042646;28;20041;-93
2023/12/15 20:38:30;;;;;;;24.23;8.05;;;6.10;99.90;;;;;;5028983;28;20128;-92
2023/12/15 20:41:42;;;;;;;28.95;9.25;;;6.70;99.90;;;;;;5053684;28;20079;-94
2023/12/15 20:44:20;;;;;;;32.50;14.30;;;4.90;99.90;;;;;;5046331;23;20046;-93
2023/12/15 20:47:30;;;;;;;;;;;;;;;;;;;;;
2023/12/15 20:50:30;;;;;;;27.47;10.30;;;7.50;99.90;;;;;;4965879;28;20185;-93
2023/12/15 20:53:02;;;;;;;29.77;12.87;;;4.50;99.90;;;;;;5001858;28;20217;-93
2023/12/15 20:58:41;;;;;;;32.60;10.27;;;5.40;99.90;;;;;;4966332;28;20105;-93
2023/12/15 21:01:09;;;;;;;22.83;8.43;;;5.80;99.90;;;;;;5001502;28;20448;-93
2023/12/15 21:07:50;;;;;;;21.10;7.67;;;6.10;99.90;;;;;;5050350;23;20069;-94
2023/12/15 21:27:22;;;;;;;31.27;11.67;;;6.30;99.90;;;;;;5036397;28;20042;-94
2023/12/15 21:30:04;;;;;;;36.97;19.13;;;6.30;99.90;;;;;;4979520;28;20050;-96
2023/12/15 21:32:33;;;;;;;36.70;11.07;;;6.50;99.90;;;;;;4995252;23;20096;-95
2023/12/15 23:26:06;;;;;;;14.40;3.93;;;7.00;99.90;;;;;;3165824;23;20095;-88
2023/12/15 23:35:12;;;;;;;17.70;3.73;;;7.40;99.90;;;;;;4869741;29;20182;-96
2023/12/15 23:37:49;;;;;;;12.43;3.83;;;7.10;99.90;;;;;;4869645;29;20102;-95
2023/12/15 23:40:20;;;;;;;14.97;4.03;;;8.90;99.90;;;;;;4869341;29;20061;-95
2023/12/15 23:43:03;;;;;;;16.67;4.07;;;7.10;99.90;;;;;;4869268;29;20056;-96
2023/12/15 23:45:35;;;;;;;11.40;3.37;;;7.40;99.90;;;;;;4870966;29;20117;-96
2023/12/15 23:51:52;;;;;;;13.90;3.80;;;7.60;99.90;;;;;;4793419;30;20055;-96
2023/12/15 23:54:25;;;;;;;14.47;3.97;;;7.40;99.90;;;;;;4795816;29;20053;-96
2023/12/15 23:57:02;;;;;;;12.47;3.40;;;5.90;99.90;;;;;;4886068;29;20053;-96
